JST1213 YMML-YMLT
Flight info
| Callsign | JST1213 |
|---|---|
| Flight time | 0h 46m |
| Altitude | 31000 |
| Route | SUNTI4/27 SUNTI H169 IRSOM W105 LT |
| Aircraft | A321/M-SDE3FGHIRWY/LB1 |
Departure
| Time | 2026-04-15 08:58 |
|---|---|
| Airport | Melbourne Airport (YMML) |
Arrival
| Time | 2026-04-15 09:44 |
|---|---|
| Airport | Launceston Airport (YMLT) |
| Time | Latitude | Longitude | Altitude | Speed | Heading |
|---|---|---|---|---|---|
| 2026-04-15 08:46 | -37.67266 | 144.84612 | 385 ft | 0 kts | 172° |
| 2026-04-15 08:48 | -37.67264 | 144.84612 | 385 ft | 2 kts | 172° |
| 2026-04-15 08:48 | -37.67239 | 144.84609 | 386 ft | 4 kts | 181° |
| 2026-04-15 08:48 | -37.67214 | 144.84614 | 386 ft | 4 kts | 208° |
| 2026-04-15 08:49 | -37.67199 | 144.84633 | 387 ft | 2 kts | 262° |
| 2026-04-15 08:49 | -37.67199 | 144.84634 | 387 ft | 0 kts | 262° |
| 2026-04-15 08:51 | -37.67200 | 144.84622 | 387 ft | 3 kts | 262° |
| 2026-04-15 08:52 | -37.67205 | 144.84578 | 386 ft | 7 kts | 262° |
| 2026-04-15 08:52 | -37.67209 | 144.84504 | 385 ft | 10 kts | 276° |
| 2026-04-15 08:52 | -37.67200 | 144.84405 | 384 ft | 13 kts | 268° |
| 2026-04-15 08:52 | -37.67191 | 144.84288 | 382 ft | 15 kts | 308° |
| 2026-04-15 08:53 | -37.67093 | 144.84250 | 384 ft | 14 kts | 351° |
| 2026-04-15 08:53 | -37.66999 | 144.84232 | 386 ft | 13 kts | 352° |
| 2026-04-15 08:53 | -37.66908 | 144.84216 | 388 ft | 13 kts | 352° |
| 2026-04-15 08:53 | -37.66824 | 144.84199 | 391 ft | 11 kts | 352° |
| 2026-04-15 08:54 | -37.66754 | 144.84187 | 388 ft | 10 kts | 352° |
| 2026-04-15 08:54 | -37.66679 | 144.84173 | 392 ft | 12 kts | 351° |
| 2026-04-15 08:54 | -37.66597 | 144.84177 | 398 ft | 11 kts | 22° |
| 2026-04-15 08:54 | -37.66542 | 144.84237 | 403 ft | 10 kts | 57° |
| 2026-04-15 08:55 | -37.66526 | 144.84326 | 403 ft | 11 kts | 82° |
| 2026-04-15 08:55 | -37.66514 | 144.84427 | 404 ft | 12 kts | 81° |
| 2026-04-15 08:55 | -37.66502 | 144.84534 | 405 ft | 13 kts | 82° |
| 2026-04-15 08:55 | -37.66489 | 144.84642 | 407 ft | 12 kts | 82° |
| 2026-04-15 08:56 | -37.66455 | 144.84740 | 406 ft | 12 kts | 46° |
| 2026-04-15 08:56 | -37.66384 | 144.84782 | 411 ft | 11 kts | 5° |
| 2026-04-15 08:56 | -37.66305 | 144.84790 | 411 ft | 11 kts | 4° |
| 2026-04-15 08:56 | -37.66236 | 144.84791 | 413 ft | 9 kts | 336° |
| 2026-04-15 08:57 | -37.66220 | 144.84715 | 413 ft | 11 kts | 275° |
| 2026-04-15 08:57 | -37.66203 | 144.84410 | 410 ft | 70 kts | 274° |
| 2026-04-15 08:57 | -37.66151 | 144.83526 | 414 ft | 131 kts | 274° |
| 2026-04-15 08:57 | -37.66075 | 144.82201 | 716 ft | 157 kts | 274° |
| 2026-04-15 08:58 | -37.65991 | 144.80844 | 1486 ft | 154 kts | 275° |
| 2026-04-15 08:58 | -37.65824 | 144.78042 | 2733 ft | 177 kts | 275° |
| 2026-04-15 08:58 | -37.65726 | 144.76408 | 3197 ft | 197 kts | 275° |
| 2026-04-15 08:59 | -37.65617 | 144.74580 | 3614 ft | 221 kts | 275° |
| 2026-04-15 08:59 | -37.65495 | 144.72524 | 4120 ft | 248 kts | 275° |
| 2026-04-15 08:59 | -37.65605 | 144.70254 | 4755 ft | 275 kts | 252° |
| 2026-04-15 08:59 | -37.66701 | 144.68151 | 5334 ft | 304 kts | 225° |
| 2026-04-15 09:00 | -37.68425 | 144.66424 | 5899 ft | 327 kts | 216° |
| 2026-04-15 09:00 | -37.70395 | 144.64929 | 6665 ft | 334 kts | 210° |
| 2026-04-15 09:00 | -37.72637 | 144.64047 | 7397 ft | 345 kts | 187° |
| 2026-04-15 09:00 | -37.75041 | 144.64355 | 8154 ft | 355 kts | 167° |
| 2026-04-15 09:01 | -37.77306 | 144.65665 | 8915 ft | 362 kts | 153° |
| 2026-04-15 09:01 | -37.79503 | 144.67263 | 9676 ft | 366 kts | 153° |
| 2026-04-15 09:01 | -37.81712 | 144.68901 | 10372 ft | 370 kts | 153° |
| 2026-04-15 09:01 | -37.83940 | 144.70574 | 11031 ft | 375 kts | 153° |
| 2026-04-15 09:02 | -37.86190 | 144.72273 | 11693 ft | 379 kts | 153° |
| 2026-04-15 09:02 | -37.88464 | 144.73993 | 12370 ft | 383 kts | 153° |
| 2026-04-15 09:02 | -37.90735 | 144.75709 | 13049 ft | 387 kts | 153° |
| 2026-04-15 09:02 | -37.93060 | 144.77462 | 13726 ft | 391 kts | 153° |
| 2026-04-15 09:03 | -37.95435 | 144.79255 | 14347 ft | 395 kts | 153° |
| 2026-04-15 09:03 | -37.97777 | 144.81021 | 14954 ft | 399 kts | 153° |
| 2026-04-15 09:03 | -38.00174 | 144.82824 | 15568 ft | 402 kts | 153° |
| 2026-04-15 09:03 | -38.02593 | 144.84646 | 16185 ft | 406 kts | 153° |
| 2026-04-15 09:04 | -38.05034 | 144.86487 | 16809 ft | 410 kts | 153° |
| 2026-04-15 09:04 | -38.07495 | 144.88351 | 17414 ft | 414 kts | 153° |
| 2026-04-15 09:04 | -38.09979 | 144.90234 | 18026 ft | 418 kts | 153° |
| 2026-04-15 09:04 | -38.12485 | 144.92135 | 18602 ft | 422 kts | 153° |
| 2026-04-15 09:05 | -38.15014 | 144.94053 | 19124 ft | 425 kts | 153° |
| 2026-04-15 09:05 | -38.17563 | 144.95988 | 19643 ft | 428 kts | 154° |
| 2026-04-15 09:05 | -38.20132 | 144.97940 | 20151 ft | 432 kts | 154° |
| 2026-04-15 09:05 | -38.22722 | 144.99906 | 20640 ft | 435 kts | 154° |
| 2026-04-15 09:06 | -38.25331 | 145.01888 | 21132 ft | 438 kts | 154° |
| 2026-04-15 09:06 | -38.27958 | 145.03888 | 21614 ft | 442 kts | 154° |
| 2026-04-15 09:06 | -38.30602 | 145.05910 | 22080 ft | 445 kts | 154° |
| 2026-04-15 09:06 | -38.33259 | 145.07942 | 22536 ft | 448 kts | 154° |
| 2026-04-15 09:07 | -38.35943 | 145.09993 | 22984 ft | 451 kts | 154° |
| 2026-04-15 09:07 | -38.38648 | 145.12055 | 23422 ft | 455 kts | 154° |
| 2026-04-15 09:07 | -38.41374 | 145.14131 | 23832 ft | 458 kts | 154° |
| 2026-04-15 09:07 | -38.44117 | 145.16224 | 24223 ft | 461 kts | 154° |
| 2026-04-15 09:08 | -38.46835 | 145.18315 | 25007 ft | 451 kts | 154° |
| 2026-04-15 09:08 | -38.49516 | 145.20372 | 25624 ft | 447 kts | 156° |
| 2026-04-15 09:08 | -38.52312 | 145.22041 | 26072 ft | 441 kts | 166° |
| 2026-04-15 09:08 | -38.55214 | 145.23311 | 26480 ft | 442 kts | 167° |
| 2026-04-15 09:09 | -38.58125 | 145.24574 | 26873 ft | 444 kts | 167° |
| 2026-04-15 09:09 | -38.61058 | 145.25853 | 27255 ft | 446 kts | 167° |
| 2026-04-15 09:09 | -38.64004 | 145.27146 | 27648 ft | 449 kts | 167° |
| 2026-04-15 09:09 | -38.66962 | 145.28450 | 28058 ft | 451 kts | 167° |
| 2026-04-15 09:10 | -38.69932 | 145.29765 | 28442 ft | 453 kts | 167° |
| 2026-04-15 09:10 | -38.72916 | 145.31090 | 28807 ft | 455 kts | 167° |
| 2026-04-15 09:10 | -38.75916 | 145.32421 | 29149 ft | 457 kts | 167° |
| 2026-04-15 09:10 | -38.78930 | 145.33756 | 29502 ft | 459 kts | 167° |
| 2026-04-15 09:11 | -38.81919 | 145.35080 | 29831 ft | 462 kts | 167° |
| 2026-04-15 09:11 | -38.84965 | 145.36427 | 30175 ft | 464 kts | 167° |
| 2026-04-15 09:11 | -38.88062 | 145.37799 | 30472 ft | 467 kts | 167° |
| 2026-04-15 09:11 | -38.91138 | 145.39160 | 30797 ft | 469 kts | 167° |
| 2026-04-15 09:12 | -38.94184 | 145.40510 | 31127 ft | 469 kts | 167° |
| 2026-04-15 09:12 | -38.97266 | 145.41880 | 31534 ft | 468 kts | 167° |
| 2026-04-15 09:12 | -39.00343 | 145.43250 | 31927 ft | 468 kts | 167° |
| 2026-04-15 09:12 | -39.03417 | 145.44624 | 32312 ft | 467 kts | 167° |
| 2026-04-15 09:13 | -39.06488 | 145.45999 | 32695 ft | 467 kts | 167° |
| 2026-04-15 09:13 | -39.09556 | 145.47373 | 33069 ft | 467 kts | 167° |
| 2026-04-15 09:13 | -39.12622 | 145.48744 | 33466 ft | 466 kts | 167° |
| 2026-04-15 09:13 | -39.15683 | 145.50113 | 33857 ft | 465 kts | 167° |
| 2026-04-15 09:14 | -39.18745 | 145.51483 | 34100 ft | 466 kts | 167° |
| 2026-04-15 09:14 | -39.21782 | 145.52848 | 34150 ft | 459 kts | 168° |
| 2026-04-15 09:14 | -39.27755 | 145.55537 | 34127 ft | 454 kts | 168° |
| 2026-04-15 09:15 | -39.33716 | 145.58199 | 34125 ft | 453 kts | 168° |
| 2026-04-15 09:15 | -39.39674 | 145.60871 | 34125 ft | 453 kts | 167° |
| 2026-04-15 09:16 | -39.45629 | 145.63561 | 34122 ft | 453 kts | 167° |
| 2026-04-15 09:16 | -39.51584 | 145.66253 | 34126 ft | 454 kts | 167° |
| 2026-04-15 09:17 | -39.57547 | 145.68957 | 34144 ft | 454 kts | 168° |
| 2026-04-15 09:17 | -39.63508 | 145.71664 | 34140 ft | 454 kts | 168° |
| 2026-04-15 09:18 | -39.69467 | 145.74375 | 34143 ft | 454 kts | 168° |
| 2026-04-15 09:18 | -39.75381 | 145.77067 | 34138 ft | 453 kts | 168° |
| 2026-04-15 09:19 | -39.81331 | 145.79774 | 34142 ft | 453 kts | 168° |
| 2026-04-15 09:19 | -39.87315 | 145.82501 | 34144 ft | 452 kts | 168° |
| 2026-04-15 09:20 | -39.93209 | 145.85202 | 34133 ft | 452 kts | 168° |
| 2026-04-15 09:20 | -39.99147 | 145.87931 | 34123 ft | 452 kts | 168° |
| 2026-04-15 09:21 | -40.05089 | 145.90669 | 34129 ft | 453 kts | 168° |
| 2026-04-15 09:21 | -40.11034 | 145.93428 | 34134 ft | 453 kts | 168° |
| 2026-04-15 09:22 | -40.15977 | 145.95726 | 34126 ft | 453 kts | 168° |
| 2026-04-15 09:22 | -40.21911 | 145.98482 | 34123 ft | 453 kts | 168° |
| 2026-04-15 09:23 | -40.27849 | 146.01249 | 34128 ft | 453 kts | 168° |
| 2026-04-15 09:23 | -40.33790 | 146.04019 | 34120 ft | 453 kts | 168° |
| 2026-04-15 09:24 | -40.39733 | 146.06798 | 34113 ft | 453 kts | 168° |
| 2026-04-15 09:24 | -40.45676 | 146.09589 | 34132 ft | 454 kts | 168° |
| 2026-04-15 09:25 | -40.51629 | 146.12387 | 33929 ft | 455 kts | 168° |
| 2026-04-15 09:25 | -40.54639 | 146.13797 | 32717 ft | 466 kts | 168° |
| 2026-04-15 09:25 | -40.57700 | 146.15229 | 32157 ft | 463 kts | 168° |
| 2026-04-15 09:26 | -40.60712 | 146.16658 | 31687 ft | 459 kts | 168° |
| 2026-04-15 09:26 | -40.63746 | 146.18098 | 31115 ft | 456 kts | 168° |
| 2026-04-15 09:26 | -40.66674 | 146.19487 | 30602 ft | 452 kts | 168° |
| 2026-04-15 09:26 | -40.69628 | 146.20883 | 30045 ft | 450 kts | 169° |
| 2026-04-15 09:27 | -40.72565 | 146.22267 | 29455 ft | 446 kts | 169° |
| 2026-04-15 09:27 | -40.75471 | 146.23640 | 28903 ft | 441 kts | 169° |
| 2026-04-15 09:27 | -40.78344 | 146.25004 | 28373 ft | 436 kts | 169° |
| 2026-04-15 09:27 | -40.81186 | 146.26353 | 27844 ft | 432 kts | 169° |
| 2026-04-15 09:28 | -40.83999 | 146.27687 | 27321 ft | 427 kts | 169° |
| 2026-04-15 09:28 | -40.86783 | 146.29010 | 26814 ft | 423 kts | 169° |
| 2026-04-15 09:28 | -40.89539 | 146.30318 | 26319 ft | 419 kts | 169° |
| 2026-04-15 09:28 | -40.92268 | 146.31613 | 25864 ft | 415 kts | 169° |
| 2026-04-15 09:29 | -40.94974 | 146.32902 | 25350 ft | 412 kts | 169° |
| 2026-04-15 09:29 | -40.97657 | 146.34187 | 24893 ft | 408 kts | 169° |
| 2026-04-15 09:29 | -41.00314 | 146.35454 | 24437 ft | 405 kts | 169° |
| 2026-04-15 09:29 | -41.02965 | 146.36714 | 23991 ft | 403 kts | 169° |
| 2026-04-15 09:30 | -41.05589 | 146.37959 | 23524 ft | 400 kts | 169° |
| 2026-04-15 09:30 | -41.08203 | 146.39203 | 23045 ft | 398 kts | 169° |
| 2026-04-15 09:30 | -41.10791 | 146.40445 | 22599 ft | 394 kts | 168° |
| 2026-04-15 09:30 | -41.13354 | 146.41679 | 22159 ft | 390 kts | 168° |
| 2026-04-15 09:31 | -41.15853 | 146.43116 | 21708 ft | 396 kts | 159° |
| 2026-04-15 09:31 | -41.18156 | 146.45177 | 21196 ft | 404 kts | 148° |
| 2026-04-15 09:31 | -41.20169 | 146.47762 | 20680 ft | 409 kts | 141° |
| 2026-04-15 09:31 | -41.22141 | 146.50482 | 20147 ft | 408 kts | 141° |
| 2026-04-15 09:32 | -41.24109 | 146.53198 | 19615 ft | 408 kts | 141° |
| 2026-04-15 09:32 | -41.26076 | 146.55911 | 19061 ft | 407 kts | 140° |
| 2026-04-15 09:32 | -41.28044 | 146.58620 | 18518 ft | 407 kts | 140° |
| 2026-04-15 09:32 | -41.30011 | 146.61330 | 17935 ft | 407 kts | 140° |
| 2026-04-15 09:33 | -41.31970 | 146.64034 | 17348 ft | 405 kts | 140° |
| 2026-04-15 09:33 | -41.33915 | 146.66720 | 16811 ft | 402 kts | 140° |
| 2026-04-15 09:33 | -41.35849 | 146.69392 | 16259 ft | 400 kts | 140° |
| 2026-04-15 09:33 | -41.37767 | 146.72043 | 15717 ft | 397 kts | 140° |
| 2026-04-15 09:34 | -41.39668 | 146.74678 | 15180 ft | 394 kts | 140° |
| 2026-04-15 09:34 | -41.41553 | 146.77296 | 14700 ft | 390 kts | 140° |
| 2026-04-15 09:34 | -41.43423 | 146.79898 | 14266 ft | 385 kts | 140° |
| 2026-04-15 09:34 | -41.45264 | 146.82461 | 13789 ft | 381 kts | 140° |
| 2026-04-15 09:35 | -41.47078 | 146.84983 | 12998 ft | 373 kts | 140° |
| 2026-04-15 09:35 | -41.48844 | 146.87438 | 12480 ft | 360 kts | 140° |
| 2026-04-15 09:35 | -41.50544 | 146.89808 | 11994 ft | 348 kts | 140° |
| 2026-04-15 09:35 | -41.52190 | 146.92105 | 11515 ft | 337 kts | 140° |
| 2026-04-15 09:36 | -41.53789 | 146.94340 | 11051 ft | 328 kts | 140° |
| 2026-04-15 09:36 | -41.55346 | 146.96517 | 10609 ft | 320 kts | 140° |
| 2026-04-15 09:36 | -41.56867 | 146.98643 | 10176 ft | 313 kts | 140° |
| 2026-04-15 09:36 | -41.58352 | 147.00718 | 9963 ft | 308 kts | 140° |
| 2026-04-15 09:37 | -41.59837 | 147.02790 | 9845 ft | 309 kts | 140° |
| 2026-04-15 09:37 | -41.61312 | 147.04850 | 9603 ft | 304 kts | 140° |
| 2026-04-15 09:37 | -41.62757 | 147.06871 | 9077 ft | 299 kts | 139° |
| 2026-04-15 09:37 | -41.64183 | 147.08871 | 8561 ft | 295 kts | 139° |
| 2026-04-15 09:38 | -41.65589 | 147.10846 | 8039 ft | 291 kts | 139° |
| 2026-04-15 09:38 | -41.66978 | 147.12799 | 7532 ft | 288 kts | 139° |
| 2026-04-15 09:38 | -41.68350 | 147.14730 | 7034 ft | 285 kts | 138° |
| 2026-04-15 09:38 | -41.69717 | 147.16650 | 6539 ft | 287 kts | 137° |
| 2026-04-15 09:39 | -41.71106 | 147.18599 | 5996 ft | 292 kts | 137° |
| 2026-04-15 09:39 | -41.72442 | 147.20662 | 5447 ft | 297 kts | 124° |
| 2026-04-15 09:39 | -41.73136 | 147.23254 | 5066 ft | 297 kts | 96° |
| 2026-04-15 09:39 | -41.72955 | 147.25919 | 4994 ft | 279 kts | 71° |
| 2026-04-15 09:40 | -41.72149 | 147.28096 | 5000 ft | 246 kts | 51° |
| 2026-04-15 09:40 | -41.70980 | 147.29673 | 5019 ft | 232 kts | 32° |
| 2026-04-15 09:40 | -41.69611 | 147.30661 | 5019 ft | 218 kts | 16° |
| 2026-04-15 09:40 | -41.68179 | 147.31082 | 5033 ft | 200 kts | 1° |
| 2026-04-15 09:41 | -41.66833 | 147.31004 | 4648 ft | 194 kts | 347° |
| 2026-04-15 09:41 | -41.65513 | 147.30493 | 3945 ft | 202 kts | 335° |
| 2026-04-15 09:41 | -41.64314 | 147.29490 | 3218 ft | 208 kts | 320° |
| 2026-04-15 09:41 | -41.63146 | 147.28358 | 2767 ft | 201 kts | 327° |
| 2026-04-15 09:42 | -41.61984 | 147.27506 | 2533 ft | 181 kts | 332° |
| 2026-04-15 09:42 | -41.60959 | 147.26634 | 2109 ft | 168 kts | 320° |
| 2026-04-15 09:42 | -41.60040 | 147.25813 | 1869 ft | 151 kts | 327° |
| 2026-04-15 09:42 | -41.59183 | 147.25135 | 1709 ft | 138 kts | 324° |
| 2026-04-15 09:43 | -41.58404 | 147.24426 | 1416 ft | 137 kts | 324° |
| 2026-04-15 09:43 | -41.57599 | 147.23768 | 1152 ft | 133 kts | 328° |
| 2026-04-15 09:43 | -41.56829 | 147.23090 | 1001 ft | 133 kts | 326° |
| 2026-04-15 09:43 | -41.56057 | 147.22452 | 839 ft | 134 kts | 328° |
| 2026-04-15 09:44 | -41.55279 | 147.21776 | 658 ft | 133 kts | 326° |
| 2026-04-15 09:44 | -41.54537 | 147.21131 | 597 ft | 115 kts | 328° |
| 2026-04-15 09:44 | -41.54021 | 147.20685 | 591 ft | 56 kts | 327° |
| 2026-04-15 09:44 | -41.53829 | 147.20524 | 593 ft | 16 kts | 328° |
| 2026-04-15 09:45 | -41.53745 | 147.20440 | 595 ft | 14 kts | 307° |
| 2026-04-15 09:45 | -41.53774 | 147.20328 | 594 ft | 16 kts | 206° |
| 2026-04-15 09:45 | -41.53884 | 147.20374 | 590 ft | 18 kts | 149° |
| 2026-04-15 09:45 | -41.53990 | 147.20465 | 586 ft | 13 kts | 146° |
| 2026-04-15 09:46 | -41.54048 | 147.20516 | 585 ft | 9 kts | 147° |
| 2026-04-15 09:46 | -41.54111 | 147.20571 | 584 ft | 12 kts | 147° |
| 2026-04-15 09:46 | -41.54167 | 147.20619 | 584 ft | 0 kts | 147° |
| 2026-04-15 09:46 | -41.54169 | 147.20622 | 584 ft | 1 kts | 147° |
| 2026-04-15 09:47 | -41.54192 | 147.20640 | 584 ft | 9 kts | 148° |
| 2026-04-15 09:47 | -41.54226 | 147.20668 | 584 ft | 0 kts | 148° |
| 2026-04-15 09:47 | -41.54256 | 147.20694 | 584 ft | 9 kts | 147° |
| 2026-04-15 09:47 | -41.54297 | 147.20730 | 584 ft | 7 kts | 147° |
| 2026-04-15 09:48 | -41.54316 | 147.20738 | 584 ft | 0 kts | 184° |
| 2026-04-15 09:48 | -41.54321 | 147.20732 | 584 ft | 0 kts | 219° |
| 2026-04-15 09:48 | -41.54321 | 147.20724 | 584 ft | 1 kts | 257° |
| 2026-04-15 09:48 | -41.54321 | 147.20710 | 584 ft | 1 kts | 276° |
| 2026-04-15 09:49 | -41.54320 | 147.20706 | 584 ft | 1 kts | 279° |
| 2026-04-15 09:49 | -41.54318 | 147.20696 | 584 ft | 1 kts | 285° |
| 2026-04-15 09:49 | -41.54313 | 147.20677 | 583 ft | 2 kts | 291° |
| 2026-04-15 09:49 | -41.54313 | 147.20676 | 583 ft | 0 kts | 292° |